createdAt,value
2022-12-12T00:00:27.024Z,100317.28
2022-12-12T00:02:53.520Z,100315.59
2022-12-12T00:05:20.148Z,100316.88
2022-12-12T00:07:46.553Z,100312.50
2022-12-12T00:10:13.283Z,100316.06
2022-12-12T00:12:40.144Z,100311.69
2022-12-12T00:15:07.263Z,100314.41
2022-12-12T00:17:34.276Z,100314.44
2022-12-12T00:20:00.707Z,100317.91
2022-12-12T00:22:27.141Z,100309.41
2022-12-12T00:24:53.569Z,100311.69
2022-12-12T00:27:20.023Z,100316.31
2022-12-12T00:29:51.788Z,100316.91
2022-12-12T00:32:18.199Z,100314.91
2022-12-12T00:34:44.638Z,100315.13
2022-12-12T00:37:11.043Z,100316.50
2022-12-12T00:39:37.556Z,100311.19
2022-12-12T00:42:03.995Z,100314.41
2022-12-12T00:44:30.406Z,100318.50
2022-12-12T00:46:56.883Z,100318.50
2022-12-12T00:49:23.316Z,100317.00
2022-12-12T00:51:49.752Z,100315.41
2022-12-12T00:54:16.189Z,100310.31
2022-12-12T00:56:43.062Z,100304.81
2022-12-12T00:59:09.500Z,100313.81
2022-12-12T01:01:36.373Z,100318.91
2022-12-12T01:04:04.705Z,100311.72
2022-12-12T01:06:31.650Z,100318.00
2022-12-12T01:08:58.171Z,100309.91
2022-12-12T01:11:25.133Z,100310.72
2022-12-12T01:13:52.968Z,100310.59
2022-12-12T01:16:19.779Z,100308.72
2022-12-12T01:18:46.426Z,100314.63
2022-12-12T01:21:15.467Z,100312.91
2022-12-12T01:23:42.384Z,100319.09
2022-12-12T01:26:15.007Z,100313.44
2022-12-12T01:28:42.552Z,100319.00
2022-12-12T01:31:09.502Z,100321.81
2022-12-12T01:33:36.153Z,100327.72
2022-12-12T01:36:03.017Z,100316.91
2022-12-12T01:38:29.391Z,100320.00
2022-12-12T01:40:55.776Z,100318.59
2022-12-12T01:43:24.058Z,100323.91
2022-12-12T01:46:00.059Z,100326.41
2022-12-12T01:48:39.416Z,100334.19
2022-12-12T01:51:10.850Z,100333.50
2022-12-12T01:53:37.285Z,100330.69
2022-12-12T01:56:08.976Z,100328.72
2022-12-12T01:58:35.580Z,100326.09
2022-12-12T02:01:01.994Z,100334.00
2022-12-12T02:03:28.585Z,100326.69
2022-12-12T02:05:59.871Z,100333.50
2022-12-12T02:08:27.258Z,100335.09
2022-12-12T02:10:53.752Z,100330.59
2022-12-12T02:13:26.614Z,100333.31
2022-12-12T02:16:20.715Z,100322.31
2022-12-12T02:19:03.212Z,100336.00
2022-12-12T02:21:33.664Z,100334.00
2022-12-12T02:24:25.769Z,100332.50
2022-12-12T02:27:23.541Z,100330.31
2022-12-12T02:30:04.988Z,100335.91
2022-12-12T02:32:51.993Z,100338.41
2022-12-12T02:35:34.467Z,100339.72
2022-12-12T02:38:19.016Z,100340.13
2022-12-12T02:41:07.331Z,100337.31
2022-12-12T02:43:43.688Z,100347.81
2022-12-12T02:46:21.027Z,100346.91
2022-12-12T02:49:02.579Z,100343.31
2022-12-12T02:51:31.879Z,100346.28
2022-12-12T02:53:59.839Z,100341.13
2022-12-12T02:56:44.856Z,100355.22
2022-12-12T02:59:24.197Z,100353.63
2022-12-12T03:02:19.907Z,100351.09
2022-12-12T03:05:19.982Z,100362.03
2022-12-12T03:07:49.229Z,100354.53
2022-12-12T03:10:24.644Z,100354.28
2022-12-12T03:13:00.723Z,100353.72
2022-12-12T03:15:45.396Z,100350.31
2022-12-12T03:18:34.983Z,100338.00
2022-12-12T03:21:10.369Z,100346.50
2022-12-12T03:23:44.361Z,100342.59
2022-12-12T03:26:17.661Z,100349.91
2022-12-12T03:28:52.501Z,100352.53
2022-12-12T03:31:24.584Z,100354.50
2022-12-12T03:34:01.944Z,100352.53
2022-12-12T03:36:37.960Z,100356.31
2022-12-12T03:39:12.343Z,100351.09
2022-12-12T03:41:48.433Z,100348.31
2022-12-12T03:44:21.019Z,100355.00
2022-12-12T03:47:06.278Z,100355.91
2022-12-12T03:49:35.663Z,100357.22
2022-12-12T03:52:10.258Z,100360.00
2022-12-12T03:54:53.991Z,100351.59
2022-12-12T03:57:27.130Z,100362.41
2022-12-12T04:00:05.666Z,100356.69
2022-12-12T04:02:46.941Z,100362.19
2022-12-12T04:05:28.432Z,100366.50
2022-12-12T04:08:07.828Z,100364.59
2022-12-12T04:11:10.725Z,100369.28
2022-12-12T04:13:53.924Z,100363.72
2022-12-12T04:16:32.736Z,100373.50
2022-12-12T04:19:08.041Z,100368.69
2022-12-12T04:22:14.072Z,100368.19
2022-12-12T04:24:50.573Z,100378.97
2022-12-12T04:27:22.224Z,100372.09
2022-12-12T04:29:53.298Z,100373.53
2022-12-12T04:32:28.514Z,100377.41
2022-12-12T04:34:57.732Z,100377.91
2022-12-12T04:37:30.760Z,100372.22
2022-12-12T04:40:01.441Z,100370.59
2022-12-12T04:42:33.588Z,100377.19
2022-12-12T04:45:10.576Z,100383.34
2022-12-12T04:47:39.320Z,100370.03
2022-12-12T04:50:09.275Z,100373.66
2022-12-12T04:52:37.112Z,100372.84
2022-12-12T04:55:09.733Z,100381.25
2022-12-12T04:57:41.081Z,100377.88
2022-12-12T05:00:09.617Z,100381.34
2022-12-12T05:02:47.736Z,100387.97
2022-12-12T05:05:18.308Z,100387.69
2022-12-12T05:07:59.999Z,100381.03
2022-12-12T05:10:26.446Z,100383.44
2022-12-12T05:12:58.290Z,100390.25
2022-12-12T05:15:25.867Z,100381.03
2022-12-12T05:18:00.237Z,100386.63
2022-12-12T05:20:26.693Z,100397.00
2022-12-12T05:22:53.202Z,100390.13
2022-12-12T05:25:19.626Z,100382.41
2022-12-12T05:27:46.017Z,100394.28
2022-12-12T05:30:13.029Z,100396.63
2022-12-12T05:32:39.527Z,100390.94
2022-12-12T05:35:07.157Z,100396.84
2022-12-12T05:37:33.741Z,100401.41
2022-12-12T05:40:00.173Z,100403.91
2022-12-12T05:42:26.718Z,100405.09
2022-12-12T05:44:53.265Z,100402.63
2022-12-12T05:47:19.742Z,100403.50
2022-12-12T05:49:46.276Z,100404.34
2022-12-12T05:52:12.638Z,100408.41
2022-12-12T05:54:40.380Z,100410.91
2022-12-12T05:57:07.129Z,100416.94
2022-12-12T05:59:33.518Z,100414.31
2022-12-12T06:02:00.133Z,100409.56
2022-12-12T06:04:26.667Z,100416.69
2022-12-12T06:06:53.077Z,100415.97
2022-12-12T06:09:19.540Z,100416.09
2022-12-12T06:11:45.950Z,100413.84
2022-12-12T06:14:12.329Z,100415.81
2022-12-12T06:16:38.813Z,100418.88
2022-12-12T06:19:05.399Z,100417.16
2022-12-12T06:21:31.858Z,100423.06
2022-12-12T06:23:58.251Z,100421.81
2022-12-12T06:26:24.730Z,100431.59
2022-12-12T06:28:51.157Z,100430.47
2022-12-12T06:31:17.869Z,100428.97
2022-12-12T06:33:44.778Z,100423.66
2022-12-12T06:36:23.668Z,100423.72
2022-12-12T06:38:55.411Z,100430.78
2022-12-12T06:41:23.089Z,100427.44
2022-12-12T06:43:50.064Z,100432.75
2022-12-12T06:46:19.615Z,100429.09
2022-12-12T06:48:46.388Z,100433.19
2022-12-12T06:51:36.298Z,100428.31
2022-12-12T06:54:02.950Z,100427.19
2022-12-12T06:56:29.340Z,100432.16
2022-12-12T06:58:55.857Z,100432.38
2022-12-12T07:01:23.544Z,100444.75
2022-12-12T07:03:52.205Z,100436.97
2022-12-12T07:06:21.332Z,100435.97
2022-12-12T07:08:48.398Z,100433.69
2022-12-12T07:11:17.595Z,100434.56
2022-12-12T07:13:44.586Z,100446.03
2022-12-12T07:16:11.417Z,100444.94
2022-12-12T07:18:37.904Z,100451.13
2022-12-12T07:21:09.058Z,100449.44
2022-12-12T07:23:35.772Z,100449.66
2022-12-12T07:26:08.716Z,100454.19
2022-12-12T07:28:35.662Z,100459.44
2022-12-12T07:31:07.033Z,100461.75
2022-12-12T07:33:43.066Z,100468.38
2022-12-12T07:36:11.533Z,100472.25
2022-12-12T07:38:38.153Z,100470.03
2022-12-12T07:41:06.376Z,100468.53
2022-12-12T07:43:41.416Z,100470.72
2022-12-12T07:46:11.688Z,100475.59
2022-12-12T07:48:38.267Z,100475.88
2022-12-12T07:51:04.799Z,100476.75
2022-12-12T07:53:31.508Z,100473.16
2022-12-12T07:55:58.297Z,100482.94
2022-12-12T07:58:24.741Z,100482.72
2022-12-12T08:00:51.217Z,100485.50
2022-12-12T08:03:17.624Z,100489.47
2022-12-12T08:05:44.100Z,100491.84
2022-12-12T08:08:11.016Z,100491.38
2022-12-12T08:10:41.410Z,100492.56
2022-12-12T08:13:08.430Z,100502.94
2022-12-12T08:15:34.892Z,100507.06
2022-12-12T08:18:01.496Z,100509.19
2022-12-12T08:20:27.890Z,100510.38
2022-12-12T08:22:54.373Z,100511.00
2022-12-12T08:25:21.957Z,100522.03
2022-12-12T08:27:48.403Z,100521.53
2022-12-12T08:30:14.889Z,100524.28
2022-12-12T08:32:41.307Z,100526.56
2022-12-12T08:35:08.356Z,100519.00
2022-12-12T08:37:34.821Z,100528.63
2022-12-12T08:40:01.293Z,100523.22
2022-12-12T08:42:27.790Z,100531.38
2022-12-12T08:44:54.293Z,100531.25
2022-12-12T08:47:20.721Z,100531.59
2022-12-12T08:49:47.146Z,100533.81
2022-12-12T08:52:13.560Z,100536.00
2022-12-12T08:54:40.034Z,100535.75
2022-12-12T08:57:06.462Z,100540.22
2022-12-12T08:59:32.950Z,100547.44
2022-12-12T09:01:59.489Z,100554.81
2022-12-12T09:04:25.980Z,100548.13
2022-12-12T09:06:52.674Z,100558.00
2022-12-12T09:09:19.079Z,100558.56
2022-12-12T09:11:45.496Z,100554.75
2022-12-12T09:14:12.081Z,100566.28
2022-12-12T09:16:38.533Z,100564.19
2022-12-12T09:19:05.033Z,100565.00
2022-12-12T09:21:31.785Z,100567.59
2022-12-12T09:23:58.822Z,100569.94
2022-12-12T09:26:25.207Z,100576.06
2022-12-12T09:28:51.621Z,100591.22
2022-12-12T09:31:18.182Z,100580.03
2022-12-12T09:33:44.715Z,100583.19
2022-12-12T09:36:13.037Z,100581.03
2022-12-12T09:38:39.643Z,100583.94
2022-12-12T09:41:32.227Z,100582.22
2022-12-12T09:44:12.499Z,100583.19
2022-12-12T09:46:57.186Z,100578.81
2022-12-12T09:49:47.792Z,100582.75
2022-12-12T09:52:27.714Z,100580.06
2022-12-12T09:54:59.266Z,100583.03
2022-12-12T09:57:39.638Z,100580.03
2022-12-12T10:00:10.118Z,100578.19
2022-12-12T10:02:42.428Z,100575.44
2022-12-12T10:05:28.213Z,100578.09
2022-12-12T10:08:22.153Z,100574.94
2022-12-12T10:10:53.989Z,100581.69
2022-12-12T10:13:29.946Z,100574.16
2022-12-12T10:16:16.814Z,100582.78
2022-12-12T10:18:48.489Z,100584.50
2022-12-12T10:21:19.983Z,100587.50
2022-12-12T10:23:56.033Z,100586.56
2022-12-12T10:26:27.705Z,100591.50
2022-12-12T10:29:00.097Z,100584.63
2022-12-12T10:31:40.491Z,100594.00
2022-12-12T10:34:38.581Z,100594.63
2022-12-12T10:37:14.589Z,100601.69
2022-12-12T10:40:13.365Z,100601.59
2022-12-12T10:42:50.197Z,100610.31
2022-12-12T10:45:40.778Z,100604.13
2022-12-12T10:48:07.266Z,100592.19
2022-12-12T10:50:45.796Z,100593.00
2022-12-12T10:53:12.544Z,100589.44
2022-12-12T10:55:44.239Z,100591.84
2022-12-12T10:58:10.874Z,100587.56
2022-12-12T11:00:42.327Z,100580.88
2022-12-12T11:03:11.935Z,100575.22
2022-12-12T11:05:40.847Z,100578.28
2022-12-12T11:08:20.384Z,100571.94
2022-12-12T11:11:02.914Z,100572.38
2022-12-12T11:13:29.910Z,100566.25
2022-12-12T11:16:13.643Z,100566.47
2022-12-12T11:18:40.380Z,100567.13
2022-12-12T11:21:13.112Z,100564.22
2022-12-12T11:23:43.648Z,100570.94
2022-12-12T11:26:16.703Z,100574.34
2022-12-12T11:28:46.805Z,100572.69
2022-12-12T11:31:18.897Z,100568.47
2022-12-12T11:33:49.158Z,100570.50
2022-12-12T11:36:19.343Z,100567.75
2022-12-12T11:38:49.586Z,100566.19
2022-12-12T11:41:16.266Z,100563.88
2022-12-12T11:43:45.486Z,100564.88
2022-12-12T11:46:14.841Z,100571.75
2022-12-12T11:49:00.537Z,100568.03
2022-12-12T11:51:36.649Z,100577.78
2022-12-12T11:54:14.586Z,100578.44
2022-12-12T11:56:57.537Z,100573.06
2022-12-12T11:59:42.040Z,100571.59
2022-12-12T12:02:46.041Z,100562.84
2022-12-12T12:05:20.386Z,100571.03
2022-12-12T12:08:02.524Z,100566.59
2022-12-12T12:11:00.153Z,100567.47
2022-12-12T12:13:46.597Z,100567.09
2022-12-12T12:16:20.262Z,100565.59
2022-12-12T12:19:05.415Z,100569.19
2022-12-12T12:21:50.742Z,100565.13
2022-12-12T12:24:38.166Z,100564.44
2022-12-12T12:27:22.647Z,100565.41
2022-12-12T12:29:52.090Z,100558.25
2022-12-12T12:32:21.181Z,100563.31
2022-12-12T12:35:02.794Z,100553.00
2022-12-12T12:37:29.081Z,100555.56
2022-12-12T12:40:01.439Z,100556.00
2022-12-12T12:42:49.891Z,100555.03
2022-12-12T12:45:19.428Z,100564.31
2022-12-12T12:47:52.653Z,100566.59
2022-12-12T12:50:24.269Z,100575.19
2022-12-12T12:52:57.036Z,100566.41
2022-12-12T12:55:35.172Z,100572.16
2022-12-12T12:58:06.135Z,100563.78
2022-12-12T13:00:35.620Z,100567.88
2022-12-12T13:03:19.065Z,100553.03
2022-12-12T13:05:51.298Z,100563.28
2022-12-12T13:08:54.308Z,100559.50
2022-12-12T13:11:38.772Z,100559.56
2022-12-12T13:14:16.622Z,100553.28
2022-12-12T13:16:44.226Z,100560.09
2022-12-12T13:19:32.113Z,100545.22
2022-12-12T13:22:16.550Z,100548.13
2022-12-12T13:25:07.710Z,100545.59
2022-12-12T13:27:45.458Z,100552.88
2022-12-12T13:30:22.588Z,100547.75
2022-12-12T13:32:51.885Z,100560.59
2022-12-12T13:35:48.011Z,100552.44
2022-12-12T13:38:21.982Z,100552.00
2022-12-12T13:41:00.047Z,100563.00
2022-12-12T13:43:42.811Z,100565.34
2022-12-12T13:46:19.890Z,100570.28
2022-12-12T13:49:21.436Z,100572.34
2022-12-12T13:51:47.896Z,100577.72
2022-12-12T13:54:14.876Z,100583.84
2022-12-12T13:56:46.143Z,100585.47
2022-12-12T13:59:21.790Z,100586.47
2022-12-12T14:01:55.664Z,100588.13
2022-12-12T14:04:29.607Z,100588.34
2022-12-12T14:07:02.213Z,100595.94
2022-12-12T14:09:47.024Z,100593.97
2022-12-12T14:12:30.701Z,100597.03
2022-12-12T14:15:01.848Z,100599.91
2022-12-12T14:17:34.299Z,100598.56
2022-12-12T14:20:06.948Z,100605.34
2022-12-12T14:22:36.149Z,100608.34
2022-12-12T14:25:14.382Z,100606.97
2022-12-12T14:27:49.959Z,100602.94
2022-12-12T14:30:22.761Z,100606.81
2022-12-12T14:32:53.588Z,100601.06
2022-12-12T14:35:34.253Z,100608.91
2022-12-12T14:38:38.260Z,100612.50
2022-12-12T14:41:15.153Z,100612.03
2022-12-12T14:44:37.260Z,100616.94
2022-12-12T14:46:42.295Z,100622.47
2022-12-12T14:49:15.274Z,100620.16
2022-12-12T14:51:43.993Z,100631.13
2022-12-12T14:54:21.184Z,100628.22
2022-12-12T14:56:53.039Z,100632.50
2022-12-12T14:59:25.484Z,100638.13
2022-12-12T15:02:25.922Z,100631.00
2022-12-12T15:05:04.561Z,100629.22
2022-12-12T15:07:34.213Z,100628.88
2022-12-12T15:10:01.112Z,100634.41
2022-12-12T15:12:34.688Z,100634.91
2022-12-12T15:15:01.566Z,100635.94
2022-12-12T15:17:36.262Z,100641.13
2022-12-12T15:20:15.020Z,100640.88
2022-12-12T15:22:54.185Z,100643.00
2022-12-12T15:25:24.105Z,100639.16
2022-12-12T15:27:56.063Z,100636.63
2022-12-12T15:30:32.907Z,100641.13
2022-12-12T15:33:01.647Z,100637.38
2022-12-12T15:35:28.342Z,100639.56
2022-12-12T15:38:03.193Z,100642.41
2022-12-12T15:40:33.017Z,100643.34
2022-12-12T15:43:07.133Z,100645.63
2022-12-12T15:45:39.782Z,100643.56
2022-12-12T15:48:07.979Z,100648.34
2022-12-12T15:50:43.544Z,100645.50
2022-12-12T15:53:31.347Z,100643.22
2022-12-12T15:55:59.507Z,100636.25
2022-12-12T15:58:39.293Z,100634.88
2022-12-12T16:01:20.453Z,100640.16
2022-12-12T16:04:26.041Z,100644.38
2022-12-12T16:06:52.424Z,100647.25
2022-12-12T16:09:21.757Z,100640.75
2022-12-12T16:11:48.211Z,100651.44
2022-12-12T16:14:42.178Z,100656.31
2022-12-12T16:17:17.249Z,100658.19
2022-12-12T16:20:02.388Z,100659.06
2022-12-12T16:22:32.446Z,100661.81
2022-12-12T16:25:17.708Z,100667.84
2022-12-12T16:27:44.911Z,100669.63
2022-12-12T16:30:14.357Z,100663.78
2022-12-12T16:32:41.351Z,100663.31
2022-12-12T16:35:08.220Z,100665.16
2022-12-12T16:37:34.710Z,100662.16
2022-12-12T16:40:01.187Z,100663.69
2022-12-12T16:42:28.465Z,100662.91
2022-12-12T16:44:54.962Z,100662.06
2022-12-12T16:47:23.856Z,100668.75
2022-12-12T16:49:51.245Z,100676.97
2022-12-12T16:52:20.450Z,100674.50
2022-12-12T16:54:53.145Z,100672.25
2022-12-12T16:57:21.585Z,100667.22
2022-12-12T16:59:48.076Z,100661.00
2022-12-12T17:02:20.307Z,100671.69
2022-12-12T17:04:47.081Z,100662.22
2022-12-12T17:07:13.964Z,100665.44
2022-12-12T17:09:40.509Z,100671.69
2022-12-12T17:12:08.929Z,100665.38
2022-12-12T17:14:37.381Z,100676.22
2022-12-12T17:17:04.999Z,100680.47
2022-12-12T17:19:32.385Z,100675.41
2022-12-12T17:21:58.973Z,100675.50
2022-12-12T17:24:25.426Z,100678.47
2022-12-12T17:26:52.153Z,100677.19
2022-12-12T17:29:18.888Z,100675.69
2022-12-12T17:31:45.408Z,100684.66
2022-12-12T17:34:11.936Z,100686.72
2022-12-12T17:36:38.401Z,100683.78
2022-12-12T17:39:05.003Z,100691.84
2022-12-12T17:41:31.522Z,100686.38
2022-12-12T17:43:58.222Z,100684.63
2022-12-12T17:46:27.660Z,100679.59
2022-12-12T17:48:56.687Z,100689.06
2022-12-12T17:51:24.210Z,100681.72
2022-12-12T17:53:52.461Z,100674.59
2022-12-12T17:56:24.426Z,100670.91
2022-12-12T17:58:51.117Z,100668.41
2022-12-12T18:01:23.837Z,100669.19
2022-12-12T18:03:51.058Z,100669.19
2022-12-12T18:06:18.923Z,100666.56
2022-12-12T18:08:46.149Z,100674.50
2022-12-12T18:11:15.368Z,100672.59
2022-12-12T18:13:42.500Z,100675.69
2022-12-12T18:16:11.759Z,100673.38
2022-12-12T18:18:38.836Z,100671.25
2022-12-12T18:21:35.768Z,100663.75
2022-12-12T18:24:04.384Z,100667.03
2022-12-12T18:26:30.908Z,100659.03
2022-12-12T18:29:02.444Z,100657.00
2022-12-12T18:31:29.283Z,100663.19
2022-12-12T18:33:57.421Z,100658.94
2022-12-12T18:36:29.152Z,100655.66
2022-12-12T18:38:56.844Z,100655.94
2022-12-12T18:41:24.107Z,100660.19
2022-12-12T18:43:50.544Z,100665.00
2022-12-12T18:46:19.636Z,100677.91
2022-12-12T18:48:47.694Z,100675.19
2022-12-12T18:51:17.071Z,100676.84
2022-12-12T18:53:44.448Z,100674.09
2022-12-12T18:56:16.489Z,100675.44
2022-12-12T18:58:44.018Z,100676.16
2022-12-12T19:01:14.396Z,100662.50
2022-12-12T19:03:42.945Z,100663.88
2022-12-12T19:06:12.616Z,100670.06
2022-12-12T19:08:40.061Z,100670.44
2022-12-12T19:11:08.000Z,100673.03
2022-12-12T19:13:34.618Z,100686.81
2022-12-12T19:16:09.397Z,100682.25
2022-12-12T19:18:35.826Z,100676.66
2022-12-12T19:21:15.654Z,100671.19
2022-12-12T19:23:42.992Z,100673.03
2022-12-12T19:26:15.228Z,100673.59
2022-12-12T19:28:42.394Z,100677.28
2022-12-12T19:31:12.674Z,100677.50
2022-12-12T19:33:39.713Z,100677.16
2022-12-12T19:36:18.358Z,100674.59
2022-12-12T19:38:46.012Z,100671.44
2022-12-12T19:41:14.644Z,100675.31
2022-12-12T19:43:42.736Z,100672.00
2022-12-12T19:46:15.685Z,100671.00
2022-12-12T19:48:43.336Z,100673.25
2022-12-12T19:51:12.811Z,100664.50
2022-12-12T19:53:41.828Z,100666.28
2022-12-12T19:56:12.541Z,100670.72
2022-12-12T19:58:39.868Z,100672.09
2022-12-12T20:01:12.839Z,100674.34
2022-12-12T20:03:40.131Z,100673.19
2022-12-12T20:06:10.710Z,100681.56
2022-12-12T20:08:38.127Z,100679.31
2022-12-12T20:11:10.898Z,100672.59
2022-12-12T20:13:38.044Z,100669.06
2022-12-12T20:16:16.246Z,100676.84
2022-12-12T20:18:43.043Z,100681.72
2022-12-12T20:21:16.840Z,100682.53
2022-12-12T20:23:55.048Z,100681.84
2022-12-12T20:26:24.616Z,100683.69
2022-12-12T20:28:52.674Z,100688.41
2022-12-12T20:31:21.780Z,100685.66
2022-12-12T20:33:49.240Z,100680.81
2022-12-12T20:36:18.472Z,100680.75
2022-12-12T20:38:46.002Z,100681.94
2022-12-12T20:41:17.926Z,100681.94
2022-12-12T20:43:45.337Z,100684.59
2022-12-12T20:46:20.284Z,100686.91
2022-12-12T20:48:48.159Z,100699.19
2022-12-12T20:51:52.959Z,100688.25
2022-12-12T20:54:07.798Z,100701.63
2022-12-12T20:56:35.084Z,100697.16
2022-12-12T20:59:03.538Z,100694.91
2022-12-12T21:01:33.639Z,100696.34
2022-12-12T21:04:01.917Z,100700.81
2022-12-12T21:06:37.598Z,100690.66
2022-12-12T21:09:09.540Z,100694.38
2022-12-12T21:11:37.586Z,100691.78
2022-12-12T21:14:04.293Z,100688.97
2022-12-12T21:16:33.686Z,100694.47
2022-12-12T21:19:03.339Z,100694.97
2022-12-12T21:21:30.361Z,100700.81
2022-12-12T21:23:57.656Z,100701.00
2022-12-12T21:26:28.970Z,100701.34
2022-12-12T21:28:56.576Z,100698.47
2022-12-12T21:31:29.744Z,100691.66
2022-12-12T21:33:56.919Z,100687.09
2022-12-12T21:36:24.411Z,100688.41
2022-12-12T21:38:52.803Z,100689.69
2022-12-12T21:41:22.706Z,100686.47
2022-12-12T21:43:50.092Z,100681.56
2022-12-12T21:46:19.967Z,100684.84
2022-12-12T21:48:46.998Z,100680.69
2022-12-12T21:51:16.076Z,100684.53
2022-12-12T21:53:42.960Z,100691.66
2022-12-12T21:56:12.988Z,100687.59
2022-12-12T21:58:40.744Z,100697.16
2022-12-12T22:01:13.854Z,100681.56
2022-12-12T22:03:40.868Z,100683.56
2022-12-12T22:06:23.373Z,100684.94
2022-12-12T22:08:50.311Z,100682.47
2022-12-12T22:11:30.985Z,100697.16
2022-12-12T22:14:06.343Z,100691.44
2022-12-12T22:16:36.179Z,100695.72
2022-12-12T22:19:06.506Z,100696.38
2022-12-12T22:21:33.469Z,100698.88
2022-12-12T22:24:00.220Z,100691.75
2022-12-12T22:26:38.322Z,100698.66
2022-12-12T22:29:08.059Z,100699.94
2022-12-12T22:31:37.474Z,100697.97
2022-12-12T22:34:07.433Z,100696.47
2022-12-12T22:36:37.529Z,100694.66
2022-12-12T22:39:06.379Z,100701.75
2022-12-12T22:41:33.117Z,100697.25
2022-12-12T22:44:03.634Z,100695.44
2022-12-12T22:46:30.428Z,100697.06
2022-12-12T22:48:59.971Z,100685.22
2022-12-12T22:51:29.041Z,100677.19
2022-12-12T22:53:56.832Z,100682.94
2022-12-12T22:56:23.354Z,100680.13
2022-12-12T22:58:49.973Z,100673.09
2022-12-12T23:01:18.781Z,100678.56
2022-12-12T23:03:46.483Z,100674.16
2022-12-12T23:06:21.700Z,100679.31
2022-12-12T23:08:59.584Z,100685.69
2022-12-12T23:11:28.199Z,100678.97
2022-12-12T23:13:56.802Z,100675.59
2022-12-12T23:16:27.558Z,100666.16
2022-12-12T23:18:54.679Z,100668.47
2022-12-12T23:21:25.346Z,100676.75
2022-12-12T23:23:52.468Z,100675.53
2022-12-12T23:26:21.210Z,100674.91
2022-12-12T23:28:48.467Z,100667.13
2022-12-12T23:31:18.704Z,100666.13
2022-12-12T23:33:45.853Z,100671.25
2022-12-12T23:36:14.088Z,100674.72
2022-12-12T23:38:40.854Z,100673.50
2022-12-12T23:41:13.021Z,100670.47
2022-12-12T23:43:40.048Z,100667.25
2022-12-12T23:46:09.323Z,100667.84
2022-12-12T23:48:35.806Z,100668.16
2022-12-12T23:51:02.371Z,100659.56
2022-12-12T23:53:31.610Z,100660.13
2022-12-12T23:56:04.484Z,100661.28
2022-12-12T23:58:30.883Z,100664.56
